sensor_id;sensor_type;location;lat;lon;timestamp;temperature;humidity
20366;DHT22;10341;49.894;8.822;2022-08-30T00:02:43;13.00;99.90
20366;DHT22;10341;49.894;8.822;2022-08-30T00:08:03;12.90;99.90
20366;DHT22;10341;49.894;8.822;2022-08-30T00:13:22;12.90;99.90
20366;DHT22;10341;49.894;8.822;2022-08-30T00:18:42;12.80;99.90
20366;DHT22;10341;49.894;8.822;2022-08-30T00:24:02;12.80;99.90
20366;DHT22;10341;49.894;8.822;2022-08-30T00:29:23;12.60;99.90
20366;DHT22;10341;49.894;8.822;2022-08-30T00:34:42;12.70;99.90
20366;DHT22;10341;49.894;8.822;2022-08-30T00:40:03;12.70;99.90
20366;DHT22;10341;49.894;8.822;2022-08-30T00:45:30;12.60;99.90
20366;DHT22;10341;49.894;8.822;2022-08-30T00:50:55;12.50;99.90
20366;DHT22;10341;49.894;8.822;2022-08-30T00:56:16;12.40;99.90
20366;DHT22;10341;49.894;8.822;2022-08-30T01:01:37;12.30;99.90
20366;DHT22;10341;49.894;8.822;2022-08-30T01:06:56;12.20;99.90
20366;DHT22;10341;49.894;8.822;2022-08-30T01:12:16;12.10;99.90
20366;DHT22;10341;49.894;8.822;2022-08-30T01:17:36;12.00;99.90
20366;DHT22;10341;49.894;8.822;2022-08-30T01:23:01;12.00;99.90
20366;DHT22;10341;49.894;8.822;2022-08-30T01:28:26;12.00;99.90
20366;DHT22;10341;49.894;8.822;2022-08-30T01:33:46;12.00;99.90
20366;DHT22;10341;49.894;8.822;2022-08-30T01:39:06;12.00;99.90
20366;DHT22;10341;49.894;8.822;2022-08-30T01:44:27;11.90;99.90
20366;DHT22;10341;49.894;8.822;2022-08-30T01:49:46;11.90;99.90
20366;DHT22;10341;49.894;8.822;2022-08-30T01:55:06;11.90;99.90
20366;DHT22;10341;49.894;8.822;2022-08-30T02:00:26;11.90;99.90
20366;DHT22;10341;49.894;8.822;2022-08-30T02:05:45;11.90;99.90
20366;DHT22;10341;49.894;8.822;2022-08-30T02:11:07;11.70;99.90
20366;DHT22;10341;49.894;8.822;2022-08-30T02:16:27;11.60;99.90
20366;DHT22;10341;49.894;8.822;2022-08-30T02:21:47;11.50;99.90
20366;DHT22;10341;49.894;8.822;2022-08-30T02:27:07;11.40;99.90
20366;DHT22;10341;49.894;8.822;2022-08-30T02:32:26;11.30;99.90
20366;DHT22;10341;49.894;8.822;2022-08-30T02:37:45;11.30;99.90
20366;DHT22;10341;49.894;8.822;2022-08-30T02:43:05;11.30;99.90
20366;DHT22;10341;49.894;8.822;2022-08-30T02:48:25;11.20;99.90
20366;DHT22;10341;49.894;8.822;2022-08-30T02:53:45;11.10;99.90
20366;DHT22;10341;49.894;8.822;2022-08-30T02:59:05;11.00;99.90
20366;DHT22;10341;49.894;8.822;2022-08-30T03:04:24;11.10;99.90
20366;DHT22;10341;49.894;8.822;2022-08-30T03:09:43;11.00;99.90
20366;DHT22;10341;49.894;8.822;2022-08-30T03:15:03;11.00;99.90
20366;DHT22;10341;49.894;8.822;2022-08-30T03:20:23;11.00;99.90
20366;DHT22;10341;49.894;8.822;2022-08-30T03:25:43;11.00;99.90
20366;DHT22;10341;49.894;8.822;2022-08-30T03:31:03;11.00;99.90
20366;DHT22;10341;49.894;8.822;2022-08-30T03:36:22;10.90;99.90
20366;DHT22;10341;49.894;8.822;2022-08-30T03:41:42;10.90;99.90
20366;DHT22;10341;49.894;8.822;2022-08-30T03:47:02;10.90;99.90
20366;DHT22;10341;49.894;8.822;2022-08-30T03:52:21;10.80;99.90
20366;DHT22;10341;49.894;8.822;2022-08-30T03:57:40;10.80;99.90
20366;DHT22;10341;49.894;8.822;2022-08-30T04:03:00;10.70;99.90
20366;DHT22;10341;49.894;8.822;2022-08-30T04:08:19;10.60;99.90
20366;DHT22;10341;49.894;8.822;2022-08-30T04:13:38;10.50;99.90
20366;DHT22;10341;49.894;8.822;2022-08-30T04:18:57;10.50;99.90
20366;DHT22;10341;49.894;8.822;2022-08-30T04:24:16;10.50;99.90
20366;DHT22;10341;49.894;8.822;2022-08-30T04:29:35;10.50;99.90
20366;DHT22;10341;49.894;8.822;2022-08-30T04:34:58;10.60;99.90
20366;DHT22;10341;49.894;8.822;2022-08-30T04:40:17;10.60;99.90
20366;DHT22;10341;49.894;8.822;2022-08-30T04:45:38;10.60;99.90
20366;DHT22;10341;49.894;8.822;2022-08-30T04:50:58;10.70;99.90
20366;DHT22;10341;49.894;8.822;2022-08-30T04:56:20;10.70;99.90
20366;DHT22;10341;49.894;8.822;2022-08-30T05:01:42;10.80;99.90
20366;DHT22;10341;49.894;8.822;2022-08-30T05:07:02;10.80;99.90
20366;DHT22;10341;49.894;8.822;2022-08-30T05:12:21;10.80;99.90
20366;DHT22;10341;49.894;8.822;2022-08-30T05:17:40;10.80;99.90
20366;DHT22;10341;49.894;8.822;2022-08-30T05:23:00;10.90;99.90
20366;DHT22;10341;49.894;8.822;2022-08-30T05:28:19;11.00;99.90
20366;DHT22;10341;49.894;8.822;2022-08-30T05:33:38;11.20;99.90
20366;DHT22;10341;49.894;8.822;2022-08-30T05:38:58;11.30;99.90
20366;DHT22;10341;49.894;8.822;2022-08-30T05:44:18;11.40;99.90
20366;DHT22;10341;49.894;8.822;2022-08-30T05:49:37;11.60;99.90
20366;DHT22;10341;49.894;8.822;2022-08-30T05:54:56;11.90;99.90
20366;DHT22;10341;49.894;8.822;2022-08-30T06:00:22;12.20;99.90
20366;DHT22;10341;49.894;8.822;2022-08-30T06:05:41;12.50;99.90
20366;DHT22;10341;49.894;8.822;2022-08-30T06:11:00;12.80;99.90
20366;DHT22;10341;49.894;8.822;2022-08-30T06:16:22;13.20;99.90
20366;DHT22;10341;49.894;8.822;2022-08-30T06:21:42;13.60;99.90
20366;DHT22;10341;49.894;8.822;2022-08-30T06:27:01;14.00;99.90
20366;DHT22;10341;49.894;8.822;2022-08-30T06:32:21;14.40;99.90
20366;DHT22;10341;49.894;8.822;2022-08-30T06:37:40;14.90;99.90
20366;DHT22;10341;49.894;8.822;2022-08-30T06:43:02;15.30;99.90
20366;DHT22;10341;49.894;8.822;2022-08-30T06:48:21;15.70;99.90
20366;DHT22;10341;49.894;8.822;2022-08-30T06:53:40;16.10;99.90
20366;DHT22;10341;49.894;8.822;2022-08-30T06:59:00;16.40;99.90
20366;DHT22;10341;49.894;8.822;2022-08-30T07:04:19;16.70;99.90
20366;DHT22;10341;49.894;8.822;2022-08-30T07:09:38;17.10;99.90
20366;DHT22;10341;49.894;8.822;2022-08-30T07:15:03;17.40;99.90
20366;DHT22;10341;49.894;8.822;2022-08-30T07:20:22;17.70;99.90
20366;DHT22;10341;49.894;8.822;2022-08-30T07:25:42;18.10;99.90
20366;DHT22;10341;49.894;8.822;2022-08-30T07:31:01;18.50;99.90
20366;DHT22;10341;49.894;8.822;2022-08-30T07:36:21;19.20;99.90
20366;DHT22;10341;49.894;8.822;2022-08-30T07:41:40;20.10;99.90
20366;DHT22;10341;49.894;8.822;2022-08-30T07:46:59;20.50;99.90
20366;DHT22;10341;49.894;8.822;2022-08-30T07:52:18;20.80;99.90
20366;DHT22;10341;49.894;8.822;2022-08-30T07:57:37;20.90;99.90
20366;DHT22;10341;49.894;8.822;2022-08-30T08:02:56;21.40;99.90
20366;DHT22;10341;49.894;8.822;2022-08-30T08:08:15;22.20;99.90
20366;DHT22;10341;49.894;8.822;2022-08-30T08:13:35;23.00;99.90
20366;DHT22;10341;49.894;8.822;2022-08-30T08:18:54;23.80;99.90
20366;DHT22;10341;49.894;8.822;2022-08-30T08:24:13;25.50;97.10
20366;DHT22;10341;49.894;8.822;2022-08-30T08:29:33;27.40;93.60
20366;DHT22;10341;49.894;8.822;2022-08-30T08:34:52;29.00;90.60
20366;DHT22;10341;49.894;8.822;2022-08-30T08:40:15;30.00;86.30
20366;DHT22;10341;49.894;8.822;2022-08-30T08:51:03;32.30;78.50
20366;DHT22;10341;49.894;8.822;2022-08-30T08:56:44;32.20;77.00
20366;DHT22;10341;49.894;8.822;2022-08-30T09:02:22;31.70;76.30
20366;DHT22;10341;49.894;8.822;2022-08-30T09:07:42;31.80;75.60
20366;DHT22;10341;49.894;8.822;2022-08-30T09:13:03;31.50;76.30
20366;DHT22;10341;49.894;8.822;2022-08-30T09:18:44;30.90;75.80
20366;DHT22;10341;49.894;8.822;2022-08-30T09:24:04;31.70;75.90
20366;DHT22;10341;49.894;8.822;2022-08-30T09:29:25;33.80;72.50
20366;DHT22;10341;49.894;8.822;2022-08-30T09:34:44;34.30;70.60
20366;DHT22;10341;49.894;8.822;2022-08-30T09:40:32;34.10;69.80
20366;DHT22;10341;49.894;8.822;2022-08-30T09:56:43;34.40;68.50
20366;DHT22;10341;49.894;8.822;2022-08-30T10:08:30;35.50;66.30
20366;DHT22;10341;49.894;8.822;2022-08-30T10:13:55;37.80;61.60
20366;DHT22;10341;49.894;8.822;2022-08-30T10:25:10;37.90;58.20
20366;DHT22;10341;49.894;8.822;2022-08-30T10:30:33;38.10;58.60
20366;DHT22;10341;49.894;8.822;2022-08-30T10:35:57;38.70;57.50
20366;DHT22;10341;49.894;8.822;2022-08-30T10:41:28;38.50;57.50
20366;DHT22;10341;49.894;8.822;2022-08-30T10:47:13;37.30;57.70
20366;DHT22;10341;49.894;8.822;2022-08-30T10:52:41;38.20;55.90
20366;DHT22;10341;49.894;8.822;2022-08-30T10:58:04;38.60;56.40
20366;DHT22;10341;49.894;8.822;2022-08-30T11:15:19;40.40;52.80
20366;DHT22;10341;49.894;8.822;2022-08-30T11:20:51;40.90;51.70
20366;DHT22;10341;49.894;8.822;2022-08-30T11:42:55;39.10;53.70
20366;DHT22;10341;49.894;8.822;2022-08-30T11:48:38;39.50;52.60
20366;DHT22;10341;49.894;8.822;2022-08-30T12:16:52;37.10;53.70
20366;DHT22;10341;49.894;8.822;2022-08-30T12:22:30;35.20;53.70
20366;DHT22;10341;49.894;8.822;2022-08-30T12:28:23;33.70;56.80
20366;DHT22;10341;49.894;8.822;2022-08-30T12:33:45;34.10;57.00
20366;DHT22;10341;49.894;8.822;2022-08-30T12:39:16;34.40;56.50
20366;DHT22;10341;49.894;8.822;2022-08-30T12:44:36;34.60;56.70
20366;DHT22;10341;49.894;8.822;2022-08-30T12:49:57;34.80;56.70
20366;DHT22;10341;49.894;8.822;2022-08-30T12:55:23;35.20;55.90
20366;DHT22;10341;49.894;8.822;2022-08-30T13:00:45;34.30;57.10
20366;DHT22;10341;49.894;8.822;2022-08-30T13:06:05;32.90;56.90
20366;DHT22;10341;49.894;8.822;2022-08-30T13:11:26;33.00;57.90
20366;DHT22;10341;49.894;8.822;2022-08-30T13:16:45;33.60;56.40
20366;DHT22;10341;49.894;8.822;2022-08-30T13:22:05;33.40;56.10
20366;DHT22;10341;49.894;8.822;2022-08-30T13:27:26;32.80;55.80
20366;DHT22;10341;49.894;8.822;2022-08-30T13:32:57;33.30;56.20
20366;DHT22;10341;49.894;8.822;2022-08-30T13:38:16;32.70;56.20
20366;DHT22;10341;49.894;8.822;2022-08-30T13:43:35;32.70;56.60
20366;DHT22;10341;49.894;8.822;2022-08-30T13:49:38;32.30;55.70
20366;DHT22;10341;49.894;8.822;2022-08-30T13:54:38;32.30;56.20
20366;DHT22;10341;49.894;8.822;2022-08-30T13:59:57;31.80;58.10
20366;DHT22;10341;49.894;8.822;2022-08-30T14:05:17;32.20;59.70
20366;DHT22;10341;49.894;8.822;2022-08-30T14:10:37;32.00;56.20
20366;DHT22;10341;49.894;8.822;2022-08-30T14:15:59;31.70;58.00
20366;DHT22;10341;49.894;8.822;2022-08-30T14:21:19;31.70;58.40
20366;DHT22;10341;49.894;8.822;2022-08-30T14:26:44;31.90;58.40
20366;DHT22;10341;49.894;8.822;2022-08-30T14:32:05;32.00;58.60
20366;DHT22;10341;49.894;8.822;2022-08-30T14:37:24;32.30;59.30
20366;DHT22;10341;49.894;8.822;2022-08-30T14:42:44;33.00;58.40
20366;DHT22;10341;49.894;8.822;2022-08-30T14:48:03;32.90;58.50
20366;DHT22;10341;49.894;8.822;2022-08-30T14:53:27;32.40;57.70
20366;DHT22;10341;49.894;8.822;2022-08-30T14:58:48;31.60;58.50
20366;DHT22;10341;49.894;8.822;2022-08-30T15:04:08;30.80;59.20
20366;DHT22;10341;49.894;8.822;2022-08-30T15:09:28;31.30;58.50
20366;DHT22;10341;49.894;8.822;2022-08-30T15:14:48;31.30;58.00
20366;DHT22;10341;49.894;8.822;2022-08-30T15:20:08;31.00;60.30
20366;DHT22;10341;49.894;8.822;2022-08-30T15:25:27;31.30;59.00
20366;DHT22;10341;49.894;8.822;2022-08-30T15:30:46;31.50;58.40
20366;DHT22;10341;49.894;8.822;2022-08-30T15:36:07;31.30;59.10
20366;DHT22;10341;49.894;8.822;2022-08-30T15:41:27;31.30;59.10
20366;DHT22;10341;49.894;8.822;2022-08-30T15:46:47;31.60;58.60
20366;DHT22;10341;49.894;8.822;2022-08-30T15:52:06;31.60;59.00
20366;DHT22;10341;49.894;8.822;2022-08-30T15:57:25;31.00;59.10
20366;DHT22;10341;49.894;8.822;2022-08-30T16:02:45;30.40;61.80
20366;DHT22;10341;49.894;8.822;2022-08-30T16:08:07;30.00;61.00
20366;DHT22;10341;49.894;8.822;2022-08-30T16:13:26;29.90;61.70
20366;DHT22;10341;49.894;8.822;2022-08-30T16:18:46;30.20;61.70
20366;DHT22;10341;49.894;8.822;2022-08-30T16:24:07;30.30;60.50
20366;DHT22;10341;49.894;8.822;2022-08-30T16:29:27;30.50;60.80
20366;DHT22;10341;49.894;8.822;2022-08-30T16:34:46;30.80;60.30
20366;DHT22;10341;49.894;8.822;2022-08-30T16:40:05;30.90;61.10
20366;DHT22;10341;49.894;8.822;2022-08-30T16:45:25;31.00;60.30
20366;DHT22;10341;49.894;8.822;2022-08-30T16:50:44;30.70;61.90
20366;DHT22;10341;49.894;8.822;2022-08-30T16:56:05;29.80;61.70
20366;DHT22;10341;49.894;8.822;2022-08-30T17:01:25;29.30;62.40
20366;DHT22;10341;49.894;8.822;2022-08-30T17:06:45;29.20;62.60
20366;DHT22;10341;49.894;8.822;2022-08-30T17:12:04;29.20;62.50
20366;DHT22;10341;49.894;8.822;2022-08-30T17:17:24;29.20;62.60
20366;DHT22;10341;49.894;8.822;2022-08-30T17:22:43;28.80;63.00
20366;DHT22;10341;49.894;8.822;2022-08-30T17:28:02;28.40;63.70
20366;DHT22;10341;49.894;8.822;2022-08-30T17:33:22;28.00;64.20
20366;DHT22;10341;49.894;8.822;2022-08-30T17:38:41;27.70;65.80
20366;DHT22;10341;49.894;8.822;2022-08-30T17:44:00;27.30;65.80
20366;DHT22;10341;49.894;8.822;2022-08-30T17:49:20;26.90;68.10
20366;DHT22;10341;49.894;8.822;2022-08-30T17:54:39;26.60;68.40
20366;DHT22;10341;49.894;8.822;2022-08-30T17:59:59;26.30;68.40
20366;DHT22;10341;49.894;8.822;2022-08-30T18:05:18;26.00;69.90
20366;DHT22;10341;49.894;8.822;2022-08-30T18:10:37;25.70;71.10
20366;DHT22;10341;49.894;8.822;2022-08-30T18:15:56;25.40;71.90
20366;DHT22;10341;49.894;8.822;2022-08-30T18:21:18;25.20;72.50
20366;DHT22;10341;49.894;8.822;2022-08-30T18:26:37;24.90;74.70
20366;DHT22;10341;49.894;8.822;2022-08-30T18:31:58;24.70;74.10
20366;DHT22;10341;49.894;8.822;2022-08-30T18:37:18;24.50;74.50
20366;DHT22;10341;49.894;8.822;2022-08-30T18:42:37;24.40;74.90
20366;DHT22;10341;49.894;8.822;2022-08-30T18:47:56;24.30;75.40
20366;DHT22;10341;49.894;8.822;2022-08-30T18:53:15;24.20;75.70
20366;DHT22;10341;49.894;8.822;2022-08-30T18:58:35;24.10;76.40
20366;DHT22;10341;49.894;8.822;2022-08-30T19:03:54;24.00;78.00
20366;DHT22;10341;49.894;8.822;2022-08-30T19:09:13;23.80;77.50
20366;DHT22;10341;49.894;8.822;2022-08-30T19:14:32;23.80;77.60
20366;DHT22;10341;49.894;8.822;2022-08-30T19:19:51;23.70;78.10
20366;DHT22;10341;49.894;8.822;2022-08-30T19:25:11;23.60;78.30
20366;DHT22;10341;49.894;8.822;2022-08-30T19:30:31;23.50;79.40
20366;DHT22;10341;49.894;8.822;2022-08-30T19:35:50;23.40;79.40
20366;DHT22;10341;49.894;8.822;2022-08-30T19:41:10;23.30;80.00
20366;DHT22;10341;49.894;8.822;2022-08-30T19:46:31;23.10;80.20
20366;DHT22;10341;49.894;8.822;2022-08-30T19:51:50;23.00;81.90
20366;DHT22;10341;49.894;8.822;2022-08-30T19:57:09;22.90;83.50
20366;DHT22;10341;49.894;8.822;2022-08-30T20:02:28;22.60;83.00
20366;DHT22;10341;49.894;8.822;2022-08-30T20:07:48;22.50;83.50
20366;DHT22;10341;49.894;8.822;2022-08-30T20:13:07;22.30;85.20
20366;DHT22;10341;49.894;8.822;2022-08-30T20:18:27;22.10;86.30
20366;DHT22;10341;49.894;8.822;2022-08-30T20:23:47;21.90;87.80
20366;DHT22;10341;49.894;8.822;2022-08-30T20:29:07;21.70;89.90
20366;DHT22;10341;49.894;8.822;2022-08-30T20:34:26;21.50;90.90
20366;DHT22;10341;49.894;8.822;2022-08-30T20:39:46;21.30;91.40
20366;DHT22;10341;49.894;8.822;2022-08-30T20:45:05;21.00;93.00
20366;DHT22;10341;49.894;8.822;2022-08-30T20:50:25;20.70;94.20
20366;DHT22;10341;49.894;8.822;2022-08-30T20:55:46;20.50;95.80
20366;DHT22;10341;49.894;8.822;2022-08-30T21:01:07;20.30;97.10
20366;DHT22;10341;49.894;8.822;2022-08-30T21:06:27;20.10;98.80
20366;DHT22;10341;49.894;8.822;2022-08-30T21:11:46;19.90;99.80
20366;DHT22;10341;49.894;8.822;2022-08-30T21:17:06;19.70;99.90
20366;DHT22;10341;49.894;8.822;2022-08-30T21:22:25;19.50;99.90
20366;DHT22;10341;49.894;8.822;2022-08-30T21:27:44;19.40;99.90
20366;DHT22;10341;49.894;8.822;2022-08-30T21:33:05;19.20;99.90
20366;DHT22;10341;49.894;8.822;2022-08-30T21:38:25;19.10;99.90
20366;DHT22;10341;49.894;8.822;2022-08-30T21:43:44;19.00;99.90
20366;DHT22;10341;49.894;8.822;2022-08-30T21:49:06;18.90;99.90
20366;DHT22;10341;49.894;8.822;2022-08-30T21:54:26;18.90;99.90
20366;DHT22;10341;49.894;8.822;2022-08-30T21:59:47;18.80;99.90
20366;DHT22;10341;49.894;8.822;2022-08-30T22:05:06;18.70;99.90
20366;DHT22;10341;49.894;8.822;2022-08-30T22:10:26;18.70;99.90
20366;DHT22;10341;49.894;8.822;2022-08-30T22:15:45;18.60;99.90
20366;DHT22;10341;49.894;8.822;2022-08-30T22:21:05;18.50;99.90
20366;DHT22;10341;49.894;8.822;2022-08-30T22:26:25;18.40;99.90
20366;DHT22;10341;49.894;8.822;2022-08-30T22:31:45;18.30;99.90
20366;DHT22;10341;49.894;8.822;2022-08-30T22:37:04;18.10;99.90
20366;DHT22;10341;49.894;8.822;2022-08-30T22:42:23;18.10;99.90
20366;DHT22;10341;49.894;8.822;2022-08-30T22:47:42;18.10;99.90
20366;DHT22;10341;49.894;8.822;2022-08-30T22:53:02;18.00;99.90
20366;DHT22;10341;49.894;8.822;2022-08-30T22:58:21;18.00;99.90
20366;DHT22;10341;49.894;8.822;2022-08-30T23:03:41;18.00;99.90
20366;DHT22;10341;49.894;8.822;2022-08-30T23:09:00;18.00;99.90
20366;DHT22;10341;49.894;8.822;2022-08-30T23:14:20;18.00;99.90
20366;DHT22;10341;49.894;8.822;2022-08-30T23:19:38;17.90;99.90
20366;DHT22;10341;49.894;8.822;2022-08-30T23:24:58;17.90;99.90
20366;DHT22;10341;49.894;8.822;2022-08-30T23:30:36;17.90;99.90
20366;DHT22;10341;49.894;8.822;2022-08-30T23:36:14;17.80;99.90
20366;DHT22;10341;49.894;8.822;2022-08-30T23:41:52;17.70;99.90
20366;DHT22;10341;49.894;8.822;2022-08-30T23:47:30;17.70;99.90
20366;DHT22;10341;49.894;8.822;2022-08-30T23:53:08;17.60;99.90
20366;DHT22;10341;49.894;8.822;2022-08-30T23:58:46;17.60;99.90
